• Join FlightAware (Why Join?)
  • Login
  • US Flag 
07:25PM EDT


 

Airport Tracker/Info


-or-


 

Live Flight TrackerFlight Track Log ✈ CPT7773 ✈ 29-Apr-2013 ✈ KCOD - KCPR

Flight Track Log - Related Links

Times and Time Zones

All times are in EDT time to prevent confusion due to time zone crossing. See the CPT7773 flight status page for this flight to view local times or setup timezone preferences in your user account.

Time Position Orientation Groundspeed Altitude Reporting Facility
EDT Latitude Longitude Course Direction KTS MPH feet Rate Location/Type
07:54PM 44.5153 -108.9164 99° East 121 139 7,600  Level Salt Lake Center
07:55PM 44.5097 -108.8678 99° East 126 145 8,500 900 Climbing Salt Lake Center
07:56PM 44.5061 -108.8050 95° East 137 158 9,500 780 Climbing Salt Lake Center
07:57PM 44.4911 -108.7578 114° Southeast 139 160 10,200 540 Climbing Salt Lake Center
07:58PM 44.4611 -108.7211 139° Southeast 132 152 10,700 300 Climbing Salt Lake Center
07:59PM 44.4358 -108.6836 133° Southeast 133 153 10,900 120 Climbing Salt Lake Center
08:00PM 44.4033 -108.6264 128° Southeast 150 173 11,000  Climbing Salt Lake Center
08:01PM 44.3717 -108.5769 132° Southeast 165 190 11,000 -60 Level Salt Lake Center
08:02PM 44.3389 -108.5264 132° Southeast 175 201 10,900  Descending Salt Lake Center
08:03PM 44.3014 -108.4681 132° Southeast 180 207 11,000  Climbing Salt Lake Center
08:04PM 44.2700 -108.4186 132° Southeast 179 206 11,000  Level Salt Lake Center
08:05PM 44.2317 -108.3592 132° Southeast 182 209 11,000  Level Salt Lake Center
08:06PM 44.1992 -108.3092 132° Southeast 183 211 11,000  Level Salt Lake Center
08:07PM 44.1650 -108.2553 131° Southeast 175 201 11,000  Level Salt Lake Center
08:08PM 44.1361 -108.2122 133° Southeast 167 192 11,000  Level Salt Lake Center
08:09PM 44.1078 -108.1683 132° Southeast 163 188 11,000  Level Salt Lake Center
08:10PM 44.0731 -108.1167 133° Southeast 162 186 11,000  Level Salt Lake Center
08:11PM 44.0414 -108.0697 133° Southeast 167 192 11,000  Level Salt Lake Center
08:12PM 44.0031 -108.0128 133° Southeast 175 201 11,000  Level Salt Lake Center
08:13PM 43.9708 -107.9653 133° Southeast 177 204 11,000  Level Salt Lake Center
08:14PM 43.9381 -107.9094 129° Southeast 172 198 11,000 -60 Level Salt Lake Center
08:15PM 43.9117 -107.8553 124° Southeast 172 198 10,900  Descending Salt Lake Center
08:16PM 43.8853 -107.8022 125° Southeast 174 200 11,000  Climbing Salt Lake Center
08:17PM 43.8542 -107.7392 124° Southeast 176 203 11,000  Level Salt Lake Center
08:18PM 43.8286 -107.6900 126° Southeast 172 198 11,000  Level Salt Lake Center
08:19PM 43.7969 -107.6297 126° Southeast 171 197 11,000  Level Salt Lake Center
08:20PM 43.7681 -107.5769 127° Southeast 175 201 11,000  Level Salt Lake Center
08:21PM 43.7406 -107.5242 126° Southeast 177 204 11,000  Level Salt Lake Center
08:23PM 43.7097 -107.4625 125° Southeast 175 201 11,000  Level Salt Lake Center
08:24PM 43.6842 -107.4097 124° Southeast 174 200 11,000  Level Salt Lake Center
08:25PM 43.6531 -107.3489 125° Southeast 173 199 11,000 -60 Level Salt Lake Center
08:26PM 43.6250 -107.2983 127° Southeast 174 200 10,900  Descending Salt Lake Center
08:27PM 43.5928 -107.2372 126° Southeast 175 201 11,000  Climbing Salt Lake Center
08:28PM 43.5642 -107.1817 125° Southeast 180 207 10,900 -60 Descending Salt Lake Center
08:29PM 43.5364 -107.1289 126° Southeast 180 207 10,900 60 Level Salt Lake Center
08:29PM 43.5242 -107.1011 121° Southeast 179 206 11,000 60 Climbing Denver Center
08:30PM 43.4981 -107.0486 124° Southeast 176 203 11,000  Level Denver Center
08:31PM 43.4764 -107.0061 125° Southeast 173 199 11,100  Climbing Denver Center
08:32PM 43.4400 -106.9372 126° Southeast 175 201 11,100 -60 Level Denver Center
08:33PM 43.4064 -106.8767 127° Southeast 178 205 11,000  Descending Denver Center
08:34PM 43.3656 -106.8478 153° Southeast 164 189 11,100 -300 Climbing Denver Center
08:35PM 43.3267 -106.8131 147° Southeast 173 199 10,500 -660 Descending Denver Center
08:36PM 43.2789 -106.7747 150° Southeast 177 204 9,800 -420 Descending Denver Center
08:37PM 43.2431 -106.7364 142° Southeast 173 199 9,700 -120 Descending Denver Center
08:38PM 43.2025 -106.6939 143° Southeast 166 191 9,600 -360 Descending Denver Center
08:39PM 43.1686 -106.6556 140° Southeast 165 190 9,000 -540 Descending Denver Center
08:40PM 43.1336 -106.6111 137° Southeast 172 198 8,500 -660 Descending Denver Center
08:41PM 43.0903 -106.5633 141° Southeast 177 204 7,700 -600 Descending Denver Center
08:42PM 43.0519 -106.5283 146° Southeast 175 201 7,300 -360 Descending Denver Center
08:43PM 43.0075 -106.4928 150° Southeast 169 194 7,000 -240 Descending Denver Center
08:45PM 42.9722 -106.4597 146° Southeast 169 194 6,900 -120 Descending Denver Center
08:47PM 42.9025 -106.4475 216° Southwest  Level FlightAware Approximate
08:54PM 42.9000 -106.4500 216° Southwest  Level FlightAware Approximate